Time;durP1;ratioP1;P1;durP2;ratioP2;P2;SDS_P1;SDS_P2;PMS_P1;PMS_P2;Temp;Humidity;BMP_temperature;BMP_pressure;BME280_temperature;BME280_humidity;BME280_pressure;Samples;Min_cycle;Max_cycle;Signal;HPM_P1;HPM_P2
2022/05/06 00:02:23;;;;;;;3.13;2.93;;;13.30;87.90;12.70;98792.00;;;;5135079;28;20217;-78
2022/05/06 00:04:50;;;;;;;2.47;2.17;;;13.30;88.20;12.70;98785.00;;;;5135255;28;20193;-78
2022/05/06 00:07:17;;;;;;;2.07;1.97;;;13.30;87.70;12.70;98784.00;;;;5135210;28;20691;-78
2022/05/06 00:09:44;;;;;;;2.53;2.33;;;13.30;87.80;12.70;98788.00;;;;5135036;28;20276;-79
2022/05/06 00:12:13;;;;;;;2.40;2.30;;;13.30;88.10;12.70;98793.00;;;;5135022;28;20254;-79
2022/05/06 00:14:40;;;;;;;1.90;1.80;;;13.30;88.40;12.70;98782.00;;;;5134813;28;20309;-79
2022/05/06 00:17:07;;;;;;;2.67;2.50;;;13.30;88.50;12.70;98782.00;;;;5134853;28;20675;-79
2022/05/06 00:19:35;;;;;;;2.73;2.53;;;13.30;88.80;12.90;98786.00;;;;5134747;28;20739;-79
2022/05/06 00:22:03;;;;;;;2.27;2.17;;;13.40;88.50;12.90;98761.00;;;;5134881;28;20232;-78
2022/05/06 00:24:30;;;;;;;3.23;3.03;;;13.40;87.90;12.80;98764.00;;;;5134702;28;20224;-78
2022/05/06 00:26:57;;;;;;;7.20;3.37;;;13.40;87.70;12.60;98785.00;;;;5134797;28;20194;-78
2022/05/06 00:29:26;;;;;;;1.57;1.50;;;13.30;88.50;12.60;98777.00;;;;5134803;28;20223;-78
2022/05/06 00:31:53;;;;;;;2.50;2.13;;;13.20;89.20;12.60;98778.00;;;;5134634;28;20280;-78
2022/05/06 00:34:20;;;;;;;3.13;2.87;;;13.20;89.60;12.70;98783.00;;;;5134623;28;20300;-79
2022/05/06 00:36:47;;;;;;;7.57;2.47;;;13.30;89.60;12.70;98772.00;;;;5134702;28;20217;-77
2022/05/06 00:39:14;;;;;;;1.93;1.83;;;13.20;90.00;12.80;98775.00;;;;5134534;28;20235;-78
2022/05/06 00:41:41;;;;;;;3.80;3.43;;;13.30;89.90;12.60;98781.00;;;;5134478;28;20223;-78
2022/05/06 00:44:09;;;;;;;2.03;1.93;;;13.30;89.60;12.50;98779.00;;;;5119452;28;20652;-79
2022/05/06 00:46:37;;;;;;;2.33;2.23;;;13.20;90.50;12.60;98779.00;;;;5138187;28;20521;-78
2022/05/06 00:49:06;;;;;;;2.03;1.80;;;13.10;91.30;12.60;98775.00;;;;5138111;28;20293;-78
2022/05/06 00:51:33;;;;;;;2.63;2.43;;;13.10;91.20;12.50;98775.00;;;;5138217;28;20193;-78
2022/05/06 00:54:02;;;;;;;2.13;2.03;;;13.10;91.90;12.50;98779.00;;;;5138085;28;20637;-78
2022/05/06 00:56:32;;;;;;;1.80;1.70;;;13.10;91.70;12.50;98786.00;;;;5138045;28;20243;-78
2022/05/06 00:58:59;;;;;;;1.47;1.47;;;13.10;92.20;12.50;98786.00;;;;5138154;28;20312;-79
2022/05/06 01:01:25;;;;;;;2.63;2.43;;;13.10;92.30;12.50;98784.00;;;;5141622;28;20207;-79
2022/05/06 01:03:53;;;;;;;2.37;2.13;;;13.10;92.60;12.70;98774.00;;;;5138039;28;20689;-77
2022/05/06 01:06:20;;;;;;;2.07;1.97;;;13.20;92.50;12.70;98775.00;;;;5138182;28;20197;-78
2022/05/06 01:08:47;;;;;;;3.07;2.80;;;13.20;91.80;12.60;98776.00;;;;5138118;28;20204;-76
2022/05/06 01:11:14;;;;;;;2.70;2.50;;;13.20;91.90;12.70;98764.00;;;;5138102;28;20204;-78
2022/05/06 01:13:44;;;;;;;2.70;2.50;;;13.20;92.10;12.70;98775.00;;;;5138404;28;20197;-77
2022/05/06 01:16:11;;;;;;;3.40;2.93;;;13.30;91.70;12.70;98780.00;;;;5137929;28;20201;-78
2022/05/06 01:18:38;;;;;;;3.73;2.77;;;13.30;91.90;12.70;98786.00;;;;5138035;28;20204;-77
2022/05/06 01:21:06;;;;;;;3.10;2.90;;;13.30;91.90;12.60;98785.00;;;;5137908;28;20273;-78
2022/05/06 01:23:37;;;;;;;5.47;3.80;;;13.20;92.50;12.70;98782.00;;;;5139444;28;20300;-78
2022/05/06 01:26:04;;;;;;;2.17;2.07;;;13.20;92.20;12.70;98777.00;;;;5137652;28;20242;-79
2022/05/06 01:28:35;;;;;;;2.17;1.97;;;13.20;92.40;12.60;98788.00;;;;5137520;28;20699;-79
2022/05/06 01:31:02;;;;;;;1.67;1.57;;;13.20;91.90;12.70;98784.00;;;;5137448;28;20592;-79
2022/05/06 01:33:31;;;;;;;3.60;3.30;;;13.20;92.70;12.60;98793.00;;;;5137418;28;20272;-77
2022/05/06 01:36:03;;;;;;;1.73;1.63;;;13.20;92.90;12.50;98794.00;;;;5137359;28;20217;-78
2022/05/06 01:38:37;;;;;;;2.73;2.53;;;13.10;92.60;12.50;98787.00;;;;5137347;28;20177;-77
2022/05/06 01:41:06;;;;;;;3.10;2.80;;;13.10;92.80;12.70;98788.00;;;;5137845;28;20243;-78
2022/05/06 01:43:39;;;;;;;1.87;1.77;;;13.20;92.90;12.70;98778.00;;;;5137263;28;20307;-78
2022/05/06 01:46:10;;;;;;;1.50;1.40;;;13.20;92.70;12.60;98782.00;;;;5137172;28;20224;-79
2022/05/06 01:48:38;;;;;;;2.37;2.23;;;13.20;92.70;12.60;98798.00;;;;5119719;28;20600;-78
2022/05/06 01:51:07;;;;;;;2.40;2.30;;;13.10;92.70;12.50;98791.00;;;;5137005;28;20537;-78
2022/05/06 01:53:38;;;;;;;2.90;2.70;;;13.10;92.90;12.50;98782.00;;;;5136917;27;20194;-78
2022/05/06 01:56:06;;;;;;;3.33;3.07;;;13.10;92.50;12.50;98787.00;;;;5136328;28;20197;-78
2022/05/06 01:58:36;;;;;;;1.87;1.77;;;13.10;93.40;12.50;98787.00;;;;5137059;28;20201;-78
2022/05/06 02:01:03;;;;;;;2.17;2.07;;;13.10;93.30;12.50;98787.00;;;;5136957;28;20557;-78
2022/05/06 02:06:14;;;;;;;2.33;2.23;;;13.10;93.50;12.60;98784.00;;;;5118806;28;20229;-78
2022/05/06 02:08:41;;;;;;;3.77;2.53;;;13.10;93.50;12.40;98785.00;;;;5136968;28;20221;-78
2022/05/06 02:11:08;;;;;;;2.97;2.80;;;13.10;93.50;12.50;98785.00;;;;5136777;28;20736;-77
2022/05/06 02:13:35;;;;;;;2.10;2.00;;;13.10;94.70;12.50;98786.00;;;;5136878;28;20284;-78
2022/05/06 02:16:02;;;;;;;16.17;2.13;;;13.10;94.40;12.50;98793.00;;;;5136735;28;20551;-77
2022/05/06 02:18:29;;;;;;;2.10;2.00;;;13.10;93.80;12.40;98787.00;;;;5136768;28;20216;-78
2022/05/06 02:20:56;;;;;;;1.60;1.50;;;13.10;93.80;12.40;98766.00;;;;5136829;28;20260;-77
2022/05/06 02:23:23;;;;;;;2.37;2.23;;;13.00;94.00;12.50;98764.00;;;;5136950;28;20714;-77
2022/05/06 02:25:50;;;;;;;2.43;2.23;;;13.00;93.90;12.50;98784.00;;;;5136460;28;20544;-76
2022/05/06 02:28:18;;;;;;;2.27;2.13;;;13.10;94.00;12.50;98793.00;;;;5136734;28;20203;-77
2022/05/06 02:33:31;;;;;;;5.87;2.27;;;13.10;94.30;12.50;98793.00;;;;5118468;28;20209;-78
2022/05/06 02:35:59;;;;;;;2.43;2.27;;;13.10;94.30;12.50;98795.00;;;;5136772;28;20300;-78
2022/05/06 02:38:29;;;;;;;2.67;2.47;;;13.10;93.60;12.40;98784.00;;;;5118705;28;20201;-78
2022/05/06 02:40:57;;;;;;;1.10;1.10;;;13.10;94.20;12.40;98794.00;;;;5136318;28;20221;-78
2022/05/06 02:43:23;;;;;;;3.63;2.73;;;13.00;94.40;12.40;98787.00;;;;5136276;28;20229;-78
2022/05/06 02:45:50;;;;;;;2.60;2.50;;;13.00;94.80;12.30;98795.00;;;;5136306;28;20307;-78
2022/05/06 02:48:16;;;;;;;3.80;3.50;;;13.00;94.90;12.30;98793.00;;;;5136369;28;20216;-77
2022/05/06 02:50:43;;;;;;;2.73;2.13;;;13.00;95.30;12.60;98796.00;;;;5118174;28;20584;-78
2022/05/06 02:53:10;;;;;;;2.30;2.20;;;13.10;96.00;12.50;98796.00;;;;5136215;28;20205;-79
2022/05/06 02:55:39;;;;;;;2.33;2.23;;;13.00;95.10;12.40;98787.00;;;;5118290;28;20240;-79
2022/05/06 02:58:07;;;;;;;1.93;1.83;;;13.00;95.20;12.50;98799.00;;;;5136192;28;20602;-78
2022/05/06 03:00:36;;;;;;;2.87;1.93;;;13.00;95.30;12.50;98794.00;;;;5136090;28;20208;-78
2022/05/06 03:03:03;;;;;;;19.70;3.03;;;13.10;95.20;12.50;98804.00;;;;5136117;28;20217;-78
2022/05/06 03:05:30;;;;;;;1.57;1.50;;;13.10;95.00;12.50;98794.00;;;;5135551;27;20213;-78
2022/05/06 03:07:57;;;;;;;2.60;2.40;;;13.00;94.90;12.50;98798.00;;;;5136013;28;20567;-79
2022/05/06 03:10:24;;;;;;;3.77;3.47;;;13.00;94.60;12.40;98771.00;;;;5135989;28;20257;-77
2022/05/06 03:12:55;;;;;;;1.57;1.47;;;13.00;94.70;12.40;98795.00;;;;5136082;28;20193;-78
2022/05/06 03:15:24;;;;;;;3.00;2.50;;;13.00;95.40;12.40;98782.00;;;;5136145;28;20217;-78
2022/05/06 03:17:51;;;;;;;3.53;3.23;;;13.00;95.50;12.40;98786.00;;;;5117785;28;20527;-78
2022/05/06 03:20:17;;;;;;;1.97;1.87;;;13.00;95.40;12.40;98788.00;;;;5135779;28;20189;-78
2022/05/06 03:22:46;;;;;;;1.13;1.13;;;13.00;95.70;12.40;98780.00;;;;5135659;28;20358;-78
2022/05/06 03:25:15;;;;;;;3.90;2.90;;;13.00;95.80;12.30;98784.00;;;;5135785;28;20208;-78
2022/05/06 03:28:02;;;;;;;1.93;1.83;;;12.90;95.90;12.30;98771.00;;;;5136204;28;20201;-78
2022/05/06 03:30:32;;;;;;;2.87;2.63;;;12.90;96.30;12.50;98788.00;;;;5136148;28;20193;-77
2022/05/06 03:32:59;;;;;;;2.23;2.03;;;13.00;97.20;12.40;98780.00;;;;5135523;28;20272;-78
2022/05/06 03:35:28;;;;;;;3.83;3.40;;;13.00;96.90;12.40;98781.00;;;;5135409;28;20201;-78
2022/05/06 03:37:54;;;;;;;4.57;2.57;;;13.00;97.60;12.40;98792.00;;;;5135408;28;20217;-77
2022/05/06 03:40:21;;;;;;;2.40;2.20;;;13.00;98.90;12.50;98793.00;;;;5135685;28;20266;-78
2022/05/06 03:42:47;;;;;;;2.60;2.03;;;13.00;98.70;12.30;98792.00;;;;5135432;28;20225;-78
2022/05/06 03:45:14;;;;;;;2.77;2.50;;;12.90;98.70;12.30;98788.00;;;;5135502;28;20249;-78
2022/05/06 03:47:41;;;;;;;1.43;1.43;;;12.90;99.60;12.20;98783.00;;;;5117320;28;20666;-78
2022/05/06 03:52:54;;;;;;;1.97;1.87;;;12.80;99.90;12.10;98794.00;;;;5135226;28;20282;-78
2022/05/06 03:55:21;;;;;;;4.00;2.80;;;12.80;99.90;12.10;98793.00;;;;5117467;28;20284;-78
2022/05/06 03:57:48;;;;;;;2.10;2.00;;;12.80;99.90;12.10;98793.00;;;;5135459;28;20247;-78
2022/05/06 04:00:16;;;;;;;1.80;1.70;;;12.80;99.90;12.10;98797.00;;;;5135366;28;20524;-78
2022/05/06 04:02:44;;;;;;;2.53;2.43;;;12.80;99.90;12.10;98805.00;;;;5135116;28;20233;-78
2022/05/06 04:05:10;;;;;;;2.60;2.50;;;12.80;99.90;12.20;98803.00;;;;5135244;28;20209;-77
2022/05/06 04:07:37;;;;;;;1.57;1.57;;;12.80;99.90;12.10;98801.00;;;;5117152;28;20328;-78
2022/05/06 04:10:05;;;;;;;1.63;1.53;;;12.70;99.90;12.20;98810.00;;;;5116794;28;20629;-78
2022/05/06 04:12:32;;;;;;;1.07;1.07;;;12.80;99.90;12.20;98815.00;;;;5135897;28;20221;-76
2022/05/06 04:14:58;;;;;;;1.77;1.67;;;12.80;99.90;12.20;98813.00;;;;5135629;28;20209;-78
2022/05/06 04:17:25;;;;;;;1.67;1.57;;;12.80;99.90;12.10;98820.00;;;;5134702;27;20229;-77
2022/05/06 04:25:22;;;;;;;2.10;2.00;;;12.70;99.90;12.00;98817.00;;;;5134896;28;20268;-78
2022/05/06 04:27:49;;;;;;;2.33;2.13;;;12.70;99.90;12.10;98824.00;;;;5134703;28;20241;-78
2022/05/06 04:30:15;;;;;;;2.60;2.40;;;12.70;99.90;12.00;98820.00;;;;5134926;28;20200;-77
2022/05/06 04:32:45;;;;;;;8.17;2.97;;;12.70;99.90;12.10;98825.00;;;;5134787;28;20556;-76
2022/05/06 04:35:15;;;;;;;2.53;2.33;;;12.70;99.90;12.00;98826.00;;;;5134467;28;20219;-77
2022/05/06 04:37:43;;;;;;;2.30;2.20;;;12.70;99.90;12.00;98827.00;;;;5134438;28;20303;-79
2022/05/06 04:40:10;;;;;;;2.30;2.17;;;12.70;99.90;12.10;98840.00;;;;5134684;28;20239;-77
2022/05/06 04:42:37;;;;;;;2.30;2.20;;;12.70;99.90;12.00;98835.00;;;;5134367;28;20626;-78
2022/05/06 04:45:05;;;;;;;2.57;2.37;;;12.60;99.90;12.00;98837.00;;;;5134465;28;20660;-77
2022/05/06 04:47:31;;;;;;;3.53;2.57;;;12.60;99.90;12.00;98839.00;;;;5134710;28;20237;-78
2022/05/06 04:49:58;;;;;;;1.87;1.77;;;12.50;99.90;11.90;98837.00;;;;5134622;28;20213;-77
2022/05/06 04:52:25;;;;;;;1.83;1.73;;;12.60;99.90;11.90;98839.00;;;;5134596;28;20614;-79
2022/05/06 04:54:54;;;;;;;2.07;1.97;;;12.50;99.90;11.80;98846.00;;;;5134358;28;20201;-79
2022/05/06 04:57:20;;;;;;;2.90;2.70;;;12.50;99.90;11.80;98847.00;;;;5134293;28;20189;-77
2022/05/06 04:59:47;;;;;;;1.43;1.43;;;12.50;99.90;11.80;98841.00;;;;5134526;28;20201;-77
2022/05/06 05:02:16;;;;;;;3.50;3.13;;;12.40;99.90;11.80;98839.00;;;;5134019;28;20209;-78
2022/05/06 05:04:43;;;;;;;3.23;3.03;;;12.50;99.90;11.90;98837.00;;;;5134367;28;20208;-78
2022/05/06 05:07:10;;;;;;;2.60;2.40;;;12.60;99.90;11.90;98841.00;;;;5134093;28;20197;-78
2022/05/06 05:09:38;;;;;;;4.13;3.17;;;12.60;99.90;11.90;98840.00;;;;5134401;28;20190;-78
2022/05/06 05:12:05;;;;;;;1.43;1.43;;;12.60;99.90;12.00;98800.00;;;;5134235;28;20358;-78
2022/05/06 05:14:35;;;;;;;2.87;2.67;;;12.60;99.90;11.90;98840.00;;;;5134293;28;20209;-78
2022/05/06 05:17:02;;;;;;;2.60;1.83;;;12.60;99.90;12.00;98846.00;;;;5116181;28;20260;-76
2022/05/06 05:19:30;;;;;;;2.60;2.50;;;12.60;99.90;11.90;98846.00;;;;5134033;28;20235;-78
2022/05/06 05:21:57;;;;;;;2.10;2.00;;;12.60;99.90;12.00;98851.00;;;;5133996;28;20205;-77
2022/05/06 05:24:23;;;;;;;1.67;1.60;;;12.60;99.90;12.10;98853.00;;;;5133837;28;20541;-78
2022/05/06 05:26:51;;;;;;;2.17;2.07;;;12.70;99.90;12.00;98854.00;;;;5134083;28;20284;-77
2022/05/06 05:29:19;;;;;;;2.57;2.37;;;12.60;99.90;12.00;98861.00;;;;5135497;27;20319;-79
2022/05/06 05:31:47;;;;;;;2.50;1.97;;;12.60;99.90;12.00;98861.00;;;;5137640;28;20236;-77
2022/05/06 05:34:14;;;;;;;2.10;2.00;;;12.60;99.90;12.00;98858.00;;;;5137460;28;20224;-78
2022/05/06 05:36:40;;;;;;;1.53;1.50;;;12.60;99.90;12.10;98865.00;;;;5137537;28;20284;-78
2022/05/06 05:39:07;;;;;;;2.87;2.67;;;12.60;99.90;12.10;98859.00;;;;5137182;28;20229;-78
2022/05/06 05:41:34;;;;;;;2.93;2.73;;;12.70;99.90;12.10;98861.00;;;;5137356;28;20193;-78
2022/05/06 05:49:30;;;;;;;2.97;2.43;;;12.70;99.90;12.10;98856.00;;;;5137163;28;20217;-77
2022/05/06 05:51:58;;;;;;;2.17;1.97;;;12.70;99.90;12.20;98835.00;;;;5137190;28;20197;-78
2022/05/06 05:54:26;;;;;;;1.73;1.63;;;12.70;99.90;12.10;98854.00;;;;5136980;28;20217;-78
2022/05/06 05:56:54;;;;;;;2.30;2.20;;;12.70;99.90;12.20;98860.00;;;;5137269;28;20244;-78
2022/05/06 05:59:23;;;;;;;2.70;2.50;;;12.70;99.90;12.20;98840.00;;;;5118961;28;20649;-78
2022/05/06 06:01:50;;;;;;;3.80;2.97;;;12.80;99.90;12.20;98863.00;;;;5137152;28;20525;-78
2022/05/06 06:04:17;;;;;;;1.87;1.77;;;12.80;99.90;12.30;98863.00;;;;5137061;28;20226;-77
2022/05/06 06:06:43;;;;;;;2.93;2.70;;;12.80;99.90;12.20;98874.00;;;;5119271;28;20193;-78
2022/05/06 06:09:10;;;;;;;1.93;1.83;;;12.80;99.90;12.20;98869.00;;;;5118957;28;20221;-78
2022/05/06 06:11:36;;;;;;;2.40;2.20;;;12.80;99.90;12.20;98874.00;;;;5137396;28;20308;-78
2022/05/06 06:14:03;;;;;;;4.87;2.13;;;12.80;99.90;12.20;98875.00;;;;5137104;28;20239;-78
2022/05/06 06:16:31;;;;;;;1.87;1.77;;;12.80;99.90;12.20;98878.00;;;;5137020;28;20201;-78
2022/05/06 06:18:59;;;;;;;2.40;2.27;;;12.80;99.90;12.20;98867.00;;;;5136893;28;20232;-77
2022/05/06 06:21:26;;;;;;;1.13;1.13;;;12.90;99.90;12.30;98874.00;;;;5137061;28;20204;-77
2022/05/06 06:23:54;;;;;;;15.77;2.03;;;12.90;99.90;12.40;98866.00;;;;5136622;28;20248;-76
2022/05/06 06:26:22;;;;;;;1.93;1.83;;;12.90;99.90;12.30;98867.00;;;;5119158;28;20238;-78
2022/05/06 06:28:52;;;;;;;1.77;1.67;;;12.90;99.90;12.30;98860.00;;;;5136966;28;20217;-79
2022/05/06 06:31:18;;;;;;;1.50;1.40;;;12.80;99.90;12.30;98867.00;;;;5136796;28;20193;-78
2022/05/06 06:33:45;;;;;;;1.80;1.70;;;12.80;99.90;12.30;98865.00;;;;5136708;28;20841;-78
2022/05/06 06:36:13;;;;;;;1.47;1.37;;;12.90;99.90;12.50;98868.00;;;;5136718;28;20696;-78
2022/05/06 06:38:40;;;;;;;1.70;1.60;;;13.00;99.90;12.40;98861.00;;;;5136409;28;20687;-78
2022/05/06 06:41:07;;;;;;;3.10;2.73;;;13.00;99.90;12.40;98868.00;;;;5117607;28;20208;-79
2022/05/06 06:43:33;;;;;;;1.70;1.60;;;12.90;99.90;12.40;98862.00;;;;5136275;28;20232;-77
2022/05/06 06:46:05;;;;;;;2.27;1.73;;;12.90;99.90;12.50;98873.00;;;;5136343;28;20296;-79
2022/05/06 06:48:32;;;;;;;3.77;2.80;;;13.00;99.70;12.40;98871.00;;;;5118085;28;20292;-78
2022/05/06 06:51:01;;;;;;;3.43;2.73;;;13.00;99.00;12.50;98878.00;;;;5136314;28;20253;-78
2022/05/06 06:53:28;;;;;;;3.47;2.43;;;13.00;99.30;12.50;98877.00;;;;5136110;28;20201;-79
2022/05/06 06:55:56;;;;;;;1.27;1.27;;;13.00;99.20;12.40;98875.00;;;;5136064;28;20655;-78
2022/05/06 06:58:23;;;;;;;2.00;1.90;;;13.00;99.40;12.50;98886.00;;;;5137027;28;20258;-78
2022/05/06 07:00:50;;;;;;;2.50;2.30;;;13.00;99.60;12.50;98884.00;;;;5144563;28;20217;-79
2022/05/06 07:03:16;;;;;;;1.30;1.23;;;13.10;99.70;12.50;98890.00;;;;5142356;28;20220;-79
2022/05/06 07:14:02;;;;;;;2.10;2.00;;;13.10;98.10;12.60;98881.00;;;;5135718;28;20240;-78
2022/05/06 07:16:31;;;;;;;1.70;1.60;;;13.20;97.90;12.70;98884.00;;;;5135829;28;20204;-79
2022/05/06 07:18:57;;;;;;;1.23;1.23;;;13.20;96.70;12.90;98890.00;;;;5135885;28;20200;-78
2022/05/06 07:21:26;;;;;;;1.83;1.73;;;13.30;96.50;12.80;98902.00;;;;5135730;28;20268;-78
2022/05/06 07:23:53;;;;;;;1.17;1.17;;;13.30;95.80;12.90;98882.00;;;;5135689;28;20312;-78
2022/05/06 07:26:20;;;;;;;0.97;0.97;;;13.30;96.80;12.90;98898.00;;;;5135643;28;20200;-78
2022/05/06 07:28:46;;;;;;;1.57;1.47;;;13.40;96.30;13.00;98885.00;;;;5135622;28;20620;-78
2022/05/06 07:31:13;;;;;;;1.10;1.10;;;13.50;97.10;13.20;98890.00;;;;5135626;28;20217;-79
2022/05/06 07:33:39;;;;;;;2.10;1.93;;;13.60;94.10;13.10;98893.00;;;;5135520;28;20222;-78
2022/05/06 07:36:06;;;;;;;1.27;1.27;;;13.60;94.90;13.20;98896.00;;;;5135374;28;20229;-78
2022/05/06 07:38:35;;;;;;;0.87;0.87;;;13.60;95.50;13.20;98895.00;;;;5135482;28;20205;-79
2022/05/06 07:41:03;;;;;;;1.20;1.20;;;13.70;94.80;13.30;98896.00;;;;5135581;28;20245;-79
2022/05/06 07:43:29;;;;;;;1.20;1.17;;;13.70;94.20;13.30;98896.00;;;;5135296;28;20304;-77
2022/05/06 07:45:57;;;;;;;1.10;1.07;;;13.80;94.60;13.50;98891.00;;;;5135280;28;20308;-77
2022/05/06 07:48:23;;;;;;;1.07;1.07;;;13.90;94.30;13.50;98884.00;;;;5135307;28;20289;-78
2022/05/06 07:50:50;;;;;;;1.13;1.13;;;14.00;93.90;13.70;98900.00;;;;5135179;28;20252;-78
2022/05/06 07:53:19;;;;;;;0.90;0.90;;;14.10;92.00;13.70;98890.00;;;;5135206;27;20204;-79
2022/05/06 07:55:46;;;;;;;1.10;1.10;;;14.20;90.60;13.90;98896.00;;;;5135030;28;20545;-78
2022/05/06 07:58:16;;;;;;;1.00;1.00;;;14.20;91.00;14.00;98895.00;;;;5135228;28;20292;-77
2022/05/06 08:00:44;;;;;;;1.67;1.23;;;14.30;88.80;14.00;98899.00;;;;5135120;28;20235;-78
2022/05/06 08:06:04;;;;;;;0.73;0.73;;;14.50;86.60;14.20;98900.00;;;;5086568;28;20584;-77
2022/05/06 08:08:31;;;;;;;1.53;1.43;;;14.60;85.70;14.30;98899.00;;;;5135100;28;20221;-79
2022/05/06 08:11:01;;;;;;;6.60;1.17;;;14.60;85.80;14.50;98896.00;;;;5134992;28;20674;-79
2022/05/06 08:13:28;;;;;;;1.00;1.00;;;14.80;87.20;14.60;98902.00;;;;5134982;28;20199;-79
2022/05/06 08:15:57;;;;;;;1.13;1.13;;;14.90;84.10;14.70;98904.00;;;;5134802;28;20228;-79
2022/05/06 08:18:26;;;;;;;1.63;1.57;;;15.00;84.20;14.70;98910.00;;;;5134916;28;20221;-77
2022/05/06 08:20:55;;;;;;;1.73;1.63;;;15.00;82.70;14.90;98908.00;;;;5134686;28;20221;-79
2022/05/06 08:23:25;;;;;;;1.30;0.87;;;15.20;84.20;14.90;98910.00;;;;5134744;28;20273;-78
2022/05/06 08:25:52;;;;;;;1.87;1.57;;;15.30;80.90;14.70;98903.00;;;;5134732;28;20213;-79
2022/05/06 08:28:19;;;;;;;1.17;1.00;;;15.20;79.90;14.80;98903.00;;;;5134732;28;20189;-79
2022/05/06 08:30:47;;;;;;;1.47;1.37;;;15.20;80.50;14.90;98911.00;;;;5117758;28;20232;-79
2022/05/06 08:33:14;;;;;;;0.97;0.97;;;15.30;80.70;15.00;98913.00;;;;5116677;28;20656;-79
2022/05/06 08:35:41;;;;;;;1.43;1.37;;;15.40;80.50;15.00;98913.00;;;;5134563;28;20706;-79
2022/05/06 08:38:08;;;;;;;0.90;0.90;;;15.40;80.60;15.00;98912.00;;;;5134784;28;20201;-79
2022/05/06 08:40:37;;;;;;;0.90;0.90;;;15.40;79.70;14.80;98912.00;;;;5135160;28;20697;-79
2022/05/06 08:43:05;;;;;;;1.20;1.20;;;15.30;79.10;14.90;98913.00;;;;5120661;28;20364;-79
2022/05/06 08:51:05;;;;;;;1.17;1.17;;;15.40;77.70;15.00;98909.00;;;;5135832;28;20216;-79
2022/05/06 08:53:34;;;;;;;0.63;0.63;;;15.30;78.40;15.00;98914.00;;;;5134406;28;20212;-80
2022/05/06 08:56:03;;;;;;;1.10;1.10;;;15.40;76.70;14.90;98921.00;;;;5134380;28;20221;-79
2022/05/06 08:58:34;;;;;;;1.10;1.10;;;15.30;75.90;15.00;98925.00;;;;5134472;28;20198;-79
2022/05/06 09:01:03;;;;;;;1.50;1.43;;;15.40;75.80;15.00;98916.00;;;;5134276;28;20225;-79
2022/05/06 09:03:31;;;;;;;1.37;1.33;;;15.50;75.00;15.20;98896.00;;;;5134655;27;20217;-80
2022/05/06 09:05:58;;;;;;;0.77;0.77;;;15.60;74.90;15.40;98911.00;;;;5137879;28;20207;-79
2022/05/06 09:08:36;;;;;;;0.90;0.90;;;15.80;75.10;15.40;98913.00;;;;5137927;28;20209;-79
2022/05/06 09:11:07;;;;;;;1.27;1.00;;;15.90;75.70;15.50;98911.00;;;;5119770;28;20235;-80
2022/05/06 09:13:36;;;;;;;1.07;0.97;;;16.00;75.70;15.50;98914.00;;;;5137906;28;20201;-78
2022/05/06 09:19:19;;;;;;;1.37;1.27;;;16.10;75.20;15.90;98924.00;;;;5137812;28;20200;-80
2022/05/06 09:22:05;;;;;;;2.63;1.03;;;16.20;75.20;15.90;98929.00;;;;5137643;28;20220;-80
2022/05/06 09:24:33;;;;;;;1.17;1.17;;;16.30;72.50;16.10;98916.00;;;;5137680;28;20316;-80
2022/05/06 09:27:05;;;;;;;0.60;0.60;;;16.40;71.60;16.20;98917.00;;;;5137601;28;20224;-80
2022/05/06 09:29:36;;;;;;;1.17;1.07;;;16.60;71.50;16.20;98918.00;;;;5137666;28;20190;-79
2022/05/06 09:32:21;;;;;;;1.20;1.20;;;16.70;68.30;16.30;98922.00;;;;5137463;28;20271;-79
2022/05/06 09:34:50;;;;;;;4.00;1.17;;;16.70;66.20;16.40;98919.00;;;;5137451;28;20594;-78
2022/05/06 09:37:38;;;;;;;1.67;1.57;;;16.80;65.50;16.40;98913.00;;;;5137398;28;20229;-78
2022/05/06 09:40:13;;;;;;;1.50;1.37;;;16.90;65.80;16.50;98914.00;;;;5137648;28;20209;-77
2022/05/06 09:42:44;;;;;;;1.00;1.00;;;17.00;67.20;16.60;98927.00;;;;5137183;28;20656;-78
2022/05/06 09:45:12;;;;;;;2.97;1.87;;;17.00;65.40;16.80;98917.00;;;;5137209;28;20211;-78
2022/05/06 09:47:40;;;;;;;1.37;1.37;;;17.20;64.60;16.90;98913.00;;;;5137311;28;20248;-78
2022/05/06 09:50:11;;;;;;;0.93;0.93;;;17.30;66.20;17.00;98905.00;;;;5137257;28;20628;-78
2022/05/06 09:52:40;;;;;;;1.03;1.03;;;17.40;61.00;17.10;98908.00;;;;5137092;28;20316;-78
2022/05/06 09:55:08;;;;;;;1.27;1.17;;;17.50;58.40;17.40;98910.00;;;;5119211;28;20625;-79
2022/05/06 09:57:37;;;;;;;0.60;0.60;;;17.60;58.50;17.50;98896.00;;;;5137020;28;20223;-79
2022/05/06 10:00:06;;;;;;;1.07;1.07;;;17.80;58.10;17.70;98903.00;;;;5137086;28;20229;-79
2022/05/06 10:02:36;;;;;;;0.60;0.60;;;18.00;57.60;17.90;98898.00;;;;5136849;28;20236;-79
2022/05/06 10:05:03;;;;;;;0.50;0.50;;;18.10;53.70;18.20;98910.00;;;;5137060;28;20185;-79
2022/05/06 10:07:32;;;;;;;0.70;0.70;;;18.40;50.10;18.20;98901.00;;;;5136845;28;20217;-78
2022/05/06 10:10:06;;;;;;;0.60;0.60;;;18.40;48.10;18.30;98902.00;;;;5136711;28;20253;-78
2022/05/06 10:12:41;;;;;;;1.23;1.23;;;18.60;48.10;18.40;98888.00;;;;5136815;28;20244;-79
2022/05/06 10:15:12;;;;;;;0.70;0.70;;;18.70;48.00;18.80;98897.00;;;;5135734;27;20291;-78
2022/05/06 10:17:50;;;;;;;0.80;0.80;;;19.00;46.70;19.10;98899.00;;;;5137302;28;20225;-79
2022/05/06 10:20:59;;;;;;;0.50;0.50;;;19.20;46.00;19.10;98895.00;;;;5143302;28;20304;-79
2022/05/06 10:23:53;;;;;;;0.60;0.60;;;19.30;45.00;19.10;98872.00;;;;5140312;28;20228;-79
2022/05/06 10:26:45;;;;;;;1.63;1.37;;;19.40;41.40;19.10;98901.00;;;;5117399;28;20247;-78
2022/05/06 10:32:57;;;;;;;1.13;1.13;;;19.60;44.20;19.40;98895.00;;;;5127675;28;20264;-79
2022/05/06 10:35:42;;;;;;;0.87;0.87;;;19.70;40.80;19.50;98897.00;;;;5136475;28;20197;-78
2022/05/06 10:38:23;;;;;;;0.60;0.60;;;19.80;43.30;19.90;98907.00;;;;5136337;28;20248;-79
2022/05/06 10:40:54;;;;;;;0.50;0.50;;;20.10;41.80;20.00;98892.00;;;;5136441;28;20204;-80
2022/05/06 10:43:50;;;;;;;0.40;0.40;;;20.30;42.70;19.70;98899.00;;;;5136245;28;20260;-79
2022/05/06 10:46:44;;;;;;;0.50;0.50;;;20.20;42.30;19.90;98902.00;;;;5136318;28;20209;-79
2022/05/06 10:49:47;;;;;;;1.37;1.33;;;20.20;42.40;20.10;98898.00;;;;5136291;28;20674;-79
2022/05/06 10:52:42;;;;;;;1.03;1.03;;;20.30;38.70;19.80;98894.00;;;;5136303;28;20192;-79
2022/05/06 10:55:13;;;;;;;0.53;0.53;;;20.20;37.30;19.80;98891.00;;;;5136414;28;20193;-78
2022/05/06 10:58:08;;;;;;;0.70;0.70;;;20.10;38.00;20.10;98885.00;;;;5118012;28;20536;-79
2022/05/06 11:00:40;;;;;;;0.83;0.83;;;;;20.10;98898.00;;;;5135995;28;20228;-79
2022/05/06 11:03:07;;;;;;;2.43;1.43;;;20.30;39.10;20.40;98894.00;;;;5135955;28;20221;-79
2022/05/06 11:05:34;;;;;;;0.90;0.90;;;20.60;39.80;20.40;98885.00;;;;5135923;28;20212;-78
2022/05/06 11:08:02;;;;;;;0.53;0.53;;;20.70;39.60;20.60;98894.00;;;;5135918;28;20217;-78
2022/05/06 11:10:33;;;;;;;0.93;0.93;;;20.80;40.80;20.90;98884.00;;;;5136063;28;20209;-78
2022/05/06 11:13:08;;;;;;;0.70;0.70;;;20.90;36.50;20.80;98902.00;;;;5117775;28;20230;-79
2022/05/06 11:15:36;;;;;;;0.90;0.90;;;21.00;39.20;20.60;98889.00;;;;5135950;28;20208;-79
2022/05/06 11:18:05;;;;;;;0.70;0.70;;;21.00;37.90;20.80;98898.00;;;;5136126;28;20225;-79
2022/05/06 11:20:34;;;;;;;0.63;0.63;;;21.10;38.40;20.50;98868.00;;;;5135793;28;20205;-79
2022/05/06 11:23:03;;;;;;;0.80;0.80;;;20.90;37.50;20.80;98902.00;;;;5135559;28;20225;-79
2022/05/06 11:25:32;;;;;;;0.80;0.80;;;21.00;36.60;20.80;98901.00;;;;5135885;28;20220;-81
2022/05/06 11:28:09;;;;;;;0.57;0.57;;;21.10;37.90;20.80;98899.00;;;;5135482;27;20209;-79
2022/05/06 11:30:37;;;;;;;0.70;0.70;;;21.10;37.90;20.80;98897.00;;;;5135914;28;20273;-79
2022/05/06 11:33:05;;;;;;;0.50;0.50;;;21.10;36.70;20.80;98890.00;;;;5135826;28;20212;-79
2022/05/06 11:35:42;;;;;;;1.50;1.47;;;21.10;37.90;21.00;98895.00;;;;5135964;28;20201;-79
2022/05/06 11:38:09;;;;;;;0.80;0.80;;;21.20;37.80;21.10;98894.00;;;;5117318;28;20246;-79
2022/05/06 11:40:38;;;;;;;1.63;1.53;;;21.40;38.20;21.50;98892.00;;;;5135571;28;20194;-78
2022/05/06 11:43:27;;;;;;;0.97;0.97;;;21.70;36.30;21.60;98894.00;;;;5135281;28;20217;-79
2022/05/06 11:48:43;;;;;;;0.63;0.63;;;22.00;36.50;21.70;98867.00;;;;5138298;28;20225;-78
2022/05/06 11:51:16;;;;;;;1.90;1.03;;;22.00;35.20;21.60;98888.00;;;;5125135;28;20250;-79